Time;durP1;ratioP1;P1;durP2;ratioP2;P2;SDS_P1;SDS_P2;PMS_P1;PMS_P2;Temp;Humidity;BMP_temperature;BMP_pressure;BME280_temperature;BME280_humidity;BME280_pressure;Samples;Min_cycle;Max_cycle;Signal;HPM_P1;HPM_P2
2021/06/18 00:01:33;;;;;;;54.00;33.15;;;;;;;18.77;49.11;101396.28;4981202;28;20448;-69
2021/06/18 00:03:58;;;;;;;54.53;32.97;;;;;;;18.48;50.16;101396.41;4974617;28;20420;-69
2021/06/18 00:06:24;;;;;;;50.10;33.10;;;;;;;18.47;50.32;101394.72;4974690;28;20556;-69
2021/06/18 00:08:49;;;;;;;46.85;33.25;;;;;;;18.35;50.43;101395.50;4987598;28;20503;-69
2021/06/18 00:11:15;;;;;;;51.03;34.95;;;;;;;18.55;50.08;101393.34;4975773;28;20057;-68
2021/06/18 00:13:40;;;;;;;57.90;35.25;;;;;;;18.53;50.25;101392.59;4976965;28;20082;-69
2021/06/18 00:16:06;;;;;;;52.47;35.75;;;;;;;18.37;50.29;101393.59;4976083;28;20381;-68
2021/06/18 00:18:31;;;;;;;58.33;37.10;;;;;;;18.43;50.21;101387.03;4975471;28;20166;-68
2021/06/18 00:20:57;;;;;;;54.88;35.22;;;;;;;18.57;49.51;101388.81;4975414;28;20129;-68
2021/06/18 00:23:22;;;;;;;58.78;36.35;;;;;;;18.51;49.95;101381.28;4978547;28;20026;-68
2021/06/18 00:25:47;;;;;;;51.95;35.50;;;;;;;18.22;50.78;101395.44;4974942;28;20044;-68
2021/06/18 00:28:13;;;;;;;60.20;35.47;;;;;;;18.47;50.82;101407.94;4979580;28;20027;-68
2021/06/18 00:30:40;;;;;;;47.10;33.53;;;;;;;18.64;49.95;101411.28;4976310;28;20117;-68
2021/06/18 00:33:06;;;;;;;52.42;32.53;;;;;;;18.70;49.84;101421.47;4974667;28;20503;-68
2021/06/18 00:35:32;;;;;;;45.58;29.23;;;;;;;18.80;49.87;101404.00;4982277;28;20053;-68
2021/06/18 00:37:58;;;;;;;58.28;35.28;;;;;;;18.68;49.66;101395.09;4972356;28;20117;-68
2021/06/18 00:40:23;;;;;;;57.97;37.20;;;;;;;18.68;49.29;101386.31;4973054;28;20134;-68
2021/06/18 00:42:49;;;;;;;59.35;35.60;;;;;;;18.60;50.14;101384.16;4960116;28;20181;-68
2021/06/18 00:45:14;;;;;;;54.55;35.83;;;;;;;18.42;50.05;101380.91;4973267;28;20627;-68
2021/06/18 00:47:58;;;;;;;52.88;32.17;;;;;;;18.58;50.30;101387.84;4975557;28;20473;-68
2021/06/18 00:50:26;;;;;;;60.67;36.72;;;;;;;18.36;50.72;101383.13;4976728;28;20034;-69
2021/06/18 00:52:51;;;;;;;53.58;36.78;;;;;;;18.46;51.43;101371.81;4994414;28;20038;-68
2021/06/18 00:55:17;;;;;;;58.08;36.58;;;;;;;18.36;52.60;101370.72;4981774;28;20043;-68
2021/06/18 00:57:42;;;;;;;66.32;39.28;;;;;;;18.42;53.17;101375.63;4973250;28;20126;-67
2021/06/18 01:00:12;;;;;;;64.75;39.30;;;;;;;18.42;52.68;101380.91;4974566;28;20049;-67
2021/06/18 01:02:39;;;;;;;61.05;36.15;;;;;;;18.36;53.57;101373.38;4980278;28;20432;-67
2021/06/18 01:05:08;;;;;;;60.40;39.40;;;;;;;18.37;53.46;101372.44;4978358;28;20042;-68
2021/06/18 01:07:42;;;;;;;63.13;39.38;;;;;;;18.30;53.17;101371.16;4978353;28;20092;-68
2021/06/18 01:10:19;;;;;;;61.83;40.65;;;;;;;18.22;53.54;101374.28;4980048;28;20030;-67
2021/06/18 01:12:56;;;;;;;60.45;42.70;;;;;;;18.16;53.62;101384.38;4979586;28;20039;-67
2021/06/18 01:15:32;;;;;;;61.67;40.58;;;;;;;18.22;53.15;101392.78;4977536;28;20038;-68
2021/06/18 01:18:05;;;;;;;55.25;39.40;;;;;;;18.20;52.99;101381.47;4993656;28;20026;-67
2021/06/18 01:20:39;;;;;;;59.15;40.40;;;;;;;18.10;53.29;101384.78;4976506;28;20038;-68
2021/06/18 01:23:20;;;;;;;69.47;43.40;;;;;;;17.99;53.06;101382.81;4991627;28;20794;-68
2021/06/18 01:25:50;;;;;;;64.18;42.45;;;;;;;18.04;53.79;101389.50;4995113;28;20035;-69
2021/06/18 01:28:33;;;;;;;68.53;44.03;;;;;;;18.06;53.39;101390.25;4979979;28;20034;-68
2021/06/18 01:31:00;;;;;;;74.57;47.88;;;;;;;17.91;54.21;101378.00;4978040;28;20045;-68
2021/06/18 01:33:28;;;;;;;71.60;47.45;;;;;;;17.86;54.03;101365.06;4977164;28;20038;-67
2021/06/18 01:35:56;;;;;;;70.50;44.38;;;;;;;17.94;54.10;101363.72;4981247;28;20177;-68
2021/06/18 01:38:25;;;;;;;69.32;45.35;;;;;;;18.04;53.34;101367.50;4974385;28;20027;-67
2021/06/18 01:40:56;;;;;;;67.32;43.17;;;;;;;18.01;53.58;101365.91;4976976;28;20042;-69
2021/06/18 01:43:24;;;;;;;57.38;38.63;;;;;;;18.01;53.20;101371.19;4978620;28;20065;-67
2021/06/18 01:45:50;;;;;;;65.53;45.10;;;;;;;17.85;53.75;101370.47;4978930;28;20030;-67
2021/06/18 01:48:18;;;;;;;59.15;43.95;;;;;;;17.97;53.30;101371.47;4977859;28;20084;-67
2021/06/18 01:50:44;;;;;;;76.90;47.33;;;;;;;17.99;53.38;101361.66;4977437;28;20057;-68
2021/06/18 01:53:15;;;;;;;67.90;45.25;;;;;;;17.98;53.11;101354.66;4977108;28;20071;-68
2021/06/18 01:55:42;;;;;;;66.40;45.03;;;;;;;17.85;53.56;101349.31;4975367;28;20030;-68
2021/06/18 01:58:10;;;;;;;66.68;41.10;;;;;;;18.01;52.90;101344.75;4976948;28;20034;-68
2021/06/18 02:00:40;;;;;;;64.22;42.00;;;;;;;18.10;52.79;101345.09;4980355;28;20038;-68
2021/06/18 02:03:10;;;;;;;73.85;44.65;;;;;;;18.03;52.69;101342.84;4980168;28;20034;-68
2021/06/18 02:05:38;;;;;;;52.35;37.17;;;;;;;17.99;53.09;101337.84;4976671;28;20484;-68
2021/06/18 02:08:06;;;;;;;69.72;44.20;;;;;;;17.94;52.48;101327.56;4976774;28;20086;-67
2021/06/18 02:10:34;;;;;;;63.65;42.05;;;;;;;17.78;53.21;101332.13;4985022;28;20034;-67
2021/06/18 02:13:01;;;;;;;67.45;41.60;;;;;;;17.94;52.58;101338.16;4974643;28;20049;-68
2021/06/18 02:15:30;;;;;;;62.40;42.63;;;;;;;17.67;52.95;101345.16;4976817;28;20109;-68
2021/06/18 02:17:56;;;;;;;64.65;41.42;;;;;;;17.77;53.03;101359.53;4975396;28;20037;-67
2021/06/18 02:20:22;;;;;;;63.47;38.30;;;;;;;17.77;53.17;101357.72;4993683;28;20584;-69
2021/06/18 02:22:55;;;;;;;67.20;41.88;;;;;;;17.68;53.00;101360.94;5007813;23;20037;-85
2021/06/18 02:25:43;;;;;;;;;;;;;;;;;;;;;
2021/06/18 02:28:26;;;;;;;;;;;;;;;;;;;;;
2021/06/18 02:31:04;;;;;;;63.13;39.55;;;;;;;17.84;52.76;101339.69;5038526;28;20041;-86
2021/06/18 02:33:30;;;;;;;68.20;42.28;;;;;;;17.83;52.30;101338.84;5030663;28;20045;-85
2021/06/18 02:35:56;;;;;;;63.13;41.80;;;;;;;17.82;52.47;101333.63;5039503;28;20540;-85
2021/06/18 02:38:22;;;;;;;60.45;37.95;;;;;;;17.73;53.03;101334.22;5037544;28;20081;-86
2021/06/18 02:40:47;;;;;;;70.00;43.15;;;;;;;17.84;52.64;101331.75;5040419;28;20025;-84
2021/06/18 02:43:13;;;;;;;55.42;39.13;;;;;;;17.87;52.27;101326.25;5038730;28;20028;-86
2021/06/18 02:45:39;;;;;;;55.67;38.97;;;;;;;17.72;53.10;101324.59;5038157;28;20037;-86
2021/06/18 02:48:14;;;;;;;58.28;37.88;;;;;;;17.85;52.38;101330.81;5037742;28;20029;-86
2021/06/18 02:50:49;;;;;;;59.80;38.20;;;;;;;17.67;52.81;101331.97;5055033;28;20124;-84
2021/06/18 02:53:23;;;;;;;63.58;41.05;;;;;;;17.55;53.11;101346.78;5040806;28;20312;-86
2021/06/18 02:55:56;;;;;;;55.63;37.92;;;;;;;17.48;53.35;101362.19;5033872;28;20032;-85
2021/06/18 02:58:32;;;;;;;52.47;35.00;;;;;;;17.67;52.90;101356.63;5035929;28;20640;-86
2021/06/18 03:01:01;;;;;;;65.97;40.58;;;;;;;17.79;52.39;101349.69;5025443;28;20036;-83
2021/06/18 03:03:31;;;;;;;52.28;35.38;;;;;;;17.82;52.64;101350.34;5023163;28;20034;-83
2021/06/18 03:06:02;;;;;;;64.65;39.50;;;;;;;17.81;52.15;101358.38;5027850;28;20561;-85
2021/06/18 03:08:34;;;;;;;57.88;36.67;;;;;;;17.67;52.62;101361.91;5039041;28;20029;-84
2021/06/18 03:11:02;;;;;;;64.97;39.42;;;;;;;17.65;52.32;101358.50;5022626;28;20060;-87
2021/06/18 03:13:34;;;;;;;53.63;36.05;;;;;;;17.53;53.18;101357.44;5043041;28;20033;-86
2021/06/18 03:15:59;;;;;;;;;;;;;;;17.64;52.95;101364.72;5018300;28;20116;-86
2021/06/18 03:18:26;;;;;;;56.45;36.30;;;;;;;17.61;53.17;101378.97;5040241;28;19947;-88
2021/06/18 03:20:56;;;;;;;58.85;38.22;;;;;;;17.58;52.85;101373.91;5039035;28;20064;-84
2021/06/18 03:23:23;;;;;;;56.67;35.78;;;;;;;17.65;52.85;101369.06;5027689;28;20064;-85
2021/06/18 03:25:49;;;;;;;49.80;33.90;;;;;;;17.75;52.79;101377.28;5037307;28;20029;-86
2021/06/18 03:28:16;;;;;;;48.45;34.00;;;;;;;17.83;52.51;101382.94;5035615;28;20025;-84
2021/06/18 03:30:47;;;;;;;56.08;36.85;;;;;;;17.77;52.39;101373.59;5021027;28;20067;-88
2021/06/18 03:33:13;;;;;;;61.10;40.00;;;;;;;17.71;52.45;101370.47;5028400;28;20456;-87
2021/06/18 03:35:40;;;;;;;54.25;36.88;;;;;;;17.70;52.50;101382.00;5034187;28;20607;-84
2021/06/18 03:38:06;;;;;;;58.88;38.95;;;;;;;17.71;52.26;101383.69;5037849;28;20406;-84
2021/06/18 03:40:34;;;;;;;56.53;38.50;;;;;;;17.69;52.63;101382.94;5040732;28;20033;-86
2021/06/18 03:43:00;;;;;;;60.40;37.85;;;;;;;17.78;52.42;101377.06;5055795;28;20029;-84
2021/06/18 03:45:26;;;;;;;54.85;38.08;;;;;;;17.77;52.33;101381.50;5040486;28;20025;-86
2021/06/18 03:47:53;;;;;;;56.60;38.63;;;;;;;17.84;52.07;101390.75;5026874;28;20533;-86
2021/06/18 03:50:21;;;;;;;60.88;40.05;;;;;;;17.79;52.33;101392.00;5029310;28;20091;-87
2021/06/18 03:52:47;;;;;;;56.83;40.05;;;;;;;17.74;52.39;101394.06;5056065;28;20305;-87
2021/06/18 03:55:13;;;;;;;57.67;39.65;;;;;;;17.82;52.47;101402.38;5036027;28;20041;-85
2021/06/18 03:57:41;;;;;;;50.17;37.38;;;;;;;18.03;52.00;101394.91;5037950;28;20115;-87
2021/06/18 04:00:09;;;;;;;56.50;40.80;;;;;;;17.85;51.63;101384.53;5053700;28;20039;-86
2021/06/18 04:02:41;;;;;;;57.42;39.13;;;;;;;17.92;52.02;101389.44;5034555;28;20019;-86
2021/06/18 04:05:12;;;;;;;65.15;41.63;;;;;;;17.81;52.18;101398.06;5039162;28;20048;-87
2021/06/18 04:07:42;;;;;;;65.78;42.20;;;;;;;17.78;52.58;101400.88;5025815;28;20068;-86
2021/06/18 04:10:09;;;;;;;64.63;41.45;;;;;;;17.93;52.29;101394.63;5041150;28;20044;-85
2021/06/18 04:12:37;;;;;;;59.53;41.25;;;;;;;18.01;52.08;101405.56;5038124;28;20063;-86
2021/06/18 04:15:04;;;;;;;60.22;43.55;;;;;;;18.00;51.58;101414.44;5055152;28;20037;-87
2021/06/18 04:17:29;;;;;;;65.55;42.35;;;;;;;17.86;52.12;101414.47;5017458;28;20489;-88
2021/06/18 04:19:56;;;;;;;64.05;44.75;;;;;;;17.90;52.35;101407.19;5022523;28;20233;-86
2021/06/18 04:22:30;;;;;;;65.90;45.35;;;;;;;17.71;53.00;101410.13;5038732;28;20021;-86
2021/06/18 04:24:57;;;;;;;59.60;42.92;;;;;;;17.61;53.03;101394.84;5040748;28;20033;-86
2021/06/18 04:27:22;;;;;;;61.35;43.75;;;;;;;17.84;52.50;101398.69;5017461;28;20064;-86
2021/06/18 04:29:49;;;;;;;61.17;42.28;;;;;;;17.88;52.29;101407.28;5023209;28;20048;-86
2021/06/18 04:32:14;;;;;;;66.28;44.53;;;;;;;17.81;52.96;101405.97;5039565;28;20134;-85
2021/06/18 04:34:40;;;;;;;56.67;41.17;;;;;;;18.10;51.98;101405.94;5035880;28;20544;-88
2021/06/18 04:37:06;;;;;;;57.95;40.28;;;;;;;18.17;51.67;101396.66;5038418;28;20155;-87
2021/06/18 04:39:32;;;;;;;64.07;41.47;;;;;;;17.90;52.83;101397.47;5022720;28;20105;-86
2021/06/18 04:42:00;;;;;;;58.58;39.95;;;;;;;18.01;52.39;101389.69;5037231;28;20120;-85
2021/06/18 04:44:26;;;;;;;59.78;39.35;;;;;;;17.99;52.10;101388.09;5037516;28;20075;-87
2021/06/18 04:46:52;;;;;;;60.45;38.97;;;;;;;18.12;51.36;101388.16;5022171;28;20036;-86
2021/06/18 04:49:17;;;;;;;62.25;40.55;;;;;;;18.55;50.17;101390.72;5019259;28;20047;-85
2021/06/18 04:51:43;;;;;;;52.10;36.22;;;;;;;18.15;51.61;101380.03;5036807;28;20559;-88
2021/06/18 04:54:10;;;;;;;47.42;34.47;;;;;;;18.15;51.54;101385.34;5021754;28;20576;-86
2021/06/18 04:56:40;;;;;;;51.03;34.58;;;;;;;18.52;50.61;101388.25;5027311;28;20043;-86
2021/06/18 04:59:06;;;;;;;45.60;32.60;;;;;;;18.60;50.83;101378.84;5021587;28;20033;-86
2021/06/18 05:01:31;;;;;;;53.80;34.25;;;;;;;18.43;51.37;101385.28;5034195;28;20029;-85
2021/06/18 05:03:57;;;;;;;46.78;31.73;;;;;;;18.46;51.15;101381.56;5020063;28;20461;-85
2021/06/18 05:06:23;;;;;;;45.78;31.42;;;;;;;18.76;50.33;101389.28;5040744;28;20124;-85
2021/06/18 05:08:49;;;;;;;49.35;32.88;;;;;;;18.79;50.14;101404.13;5042667;28;20073;-86
2021/06/18 05:11:14;;;;;;;43.05;30.92;;;;;;;18.71;50.74;101415.22;5044415;28;20061;-86
2021/06/18 05:13:40;;;;;;;53.15;34.85;;;;;;;18.77;50.22;101411.31;5020747;28;20075;-86
2021/06/18 05:16:32;;;;;;;42.92;31.40;;;;;;;18.18;52.34;101408.94;5021592;28;20097;-87
2021/06/18 05:18:57;;;;;;;45.08;29.42;;;;;;;18.77;50.62;101411.31;5036628;28;20044;-86
2021/06/18 05:21:22;;;;;;;49.40;30.85;;;;;;;18.85;50.29;101420.47;5018312;28;20383;-86
2021/06/18 05:23:48;;;;;;;42.50;30.23;;;;;;;18.53;50.86;101417.28;5034974;28;20111;-87
2021/06/18 05:26:14;;;;;;;43.42;30.58;;;;;;;18.67;51.18;101411.91;5022572;28;20037;-88
2021/06/18 05:28:39;;;;;;;39.10;28.52;;;;;;;19.11;49.54;101414.38;5017363;28;20061;-86
2021/06/18 05:31:05;;;;;;;44.80;31.15;;;;;;;19.68;49.06;101417.50;5025373;28;20026;-87
2021/06/18 05:33:30;;;;;;;42.50;27.55;;;;;;;20.49;46.05;101421.44;5021215;28;20478;-86
2021/06/18 05:35:56;;;;;;;31.90;25.30;;;;;;;21.22;44.77;101435.50;5034017;28;20117;-86
2021/06/18 05:38:22;;;;;;;40.20;27.33;;;;;;;22.02;42.89;101415.94;5032533;28;20063;-86
2021/06/18 05:40:47;;;;;;;30.98;21.15;;;;;;;22.93;41.56;101417.38;5045314;28;20025;-87
2021/06/18 05:43:13;;;;;;;28.95;21.77;;;;;;;23.48;39.31;101411.84;5033926;28;20037;-88
2021/06/18 05:45:39;;;;;;;31.75;22.23;;;;;;;23.06;40.16;101427.00;5019062;28;20033;-87
2021/06/18 05:48:06;;;;;;;25.40;20.58;;;;;;;22.72;40.22;101437.84;5035093;28;20034;-88
2021/06/18 05:50:32;;;;;;;32.28;22.13;;;;;;;21.29;43.83;101447.34;5055919;28;20037;-88
2021/06/18 05:52:58;;;;;;;37.55;22.92;;;;;;;20.94;44.42;101447.38;5039760;28;20060;-85
2021/06/18 05:55:24;;;;;;;32.13;22.20;;;;;;;20.70;45.57;101439.38;5026787;28;20029;-87
2021/06/18 05:57:51;;;;;;;31.52;23.02;;;;;;;20.78;45.07;101442.31;5041582;28;20033;-88
2021/06/18 06:00:17;;;;;;;31.17;21.83;;;;;;;21.37;44.16;101449.41;5025359;28;20033;-87
2021/06/18 06:02:43;;;;;;;31.92;21.33;;;;;;;22.14;42.35;101452.25;5042692;28;20033;-88
2021/06/18 06:05:09;;;;;;;26.17;21.02;;;;;;;23.10;40.47;101452.44;5044708;28;20128;-86
2021/06/18 06:07:35;;;;;;;28.63;21.20;;;;;;;24.47;37.06;101460.09;5038181;28;20643;-87
2021/06/18 06:10:01;;;;;;;30.15;20.80;;;;;;;24.58;36.47;101472.50;5022884;28;20033;-88
2021/06/18 06:12:26;;;;;;;28.88;20.08;;;;;;;24.17;37.87;101493.06;5020932;28;20029;-85
2021/06/18 06:14:52;;;;;;;27.30;21.00;;;;;;;22.53;40.25;101492.59;5046926;28;20013;-86
2021/06/18 06:17:17;;;;;;;29.38;22.77;;;;;;;21.75;42.18;101507.63;5046761;28;20414;-88
2021/06/18 06:19:43;;;;;;;32.80;23.33;;;;;;;20.82;44.55;101501.38;5025811;28;20040;-88
2021/06/18 06:22:08;;;;;;;30.85;22.90;;;;;;;20.64;44.79;101506.22;5023476;28;20044;-86
2021/06/18 06:24:36;;;;;;;31.10;22.20;;;;;;;20.54;45.74;101509.56;5023189;28;20126;-86
2021/06/18 06:27:02;;;;;;;28.65;24.00;;;;;;;20.17;46.11;101508.66;5029712;28;20029;-87
2021/06/18 06:29:27;;;;;;;27.10;21.52;;;;;;;20.07;47.37;101510.28;5039923;28;20095;-85
2021/06/18 06:31:53;;;;;;;31.10;22.98;;;;;;;20.02;46.56;101502.66;5023678;28;20076;-87
2021/06/18 06:34:18;;;;;;;34.35;24.38;;;;;;;20.54;46.51;101511.38;5040051;28;20041;-85
2021/06/18 06:36:44;;;;;;;29.27;24.38;;;;;;;21.74;43.25;101516.59;5025707;28;20124;-87
2021/06/18 06:39:09;;;;;;;30.15;22.30;;;;;;;22.25;42.60;101530.41;5026581;28;20132;-86
2021/06/18 06:41:35;;;;;;;29.30;20.63;;;;;;;23.20;39.58;101533.34;5057861;28;20426;-87
2021/06/18 06:44:01;;;;;;;27.27;19.38;;;;;;;23.34;39.38;101526.84;5022210;28;20040;-87
2021/06/18 06:46:26;;;;;;;29.00;19.90;;;;;;;22.76;41.41;101525.41;5034917;28;20037;-83
2021/06/18 06:48:52;;;;;;;30.55;19.08;;;;;;;22.56;41.51;101529.66;5025941;28;20044;-87
2021/06/18 06:51:18;;;;;;;26.45;19.63;;;;;;;22.44;41.33;101540.44;5027001;28;20522;-87
2021/06/18 06:53:43;;;;;;;24.00;17.55;;;;;;;22.42;41.78;101548.56;5039266;28;20039;-86
2021/06/18 06:56:10;;;;;;;25.17;19.80;;;;;;;22.29;41.21;101547.84;5037237;28;20033;-86
2021/06/18 06:58:36;;;;;;;22.92;18.48;;;;;;;21.04;44.54;101552.03;5021258;28;20030;-87
2021/06/18 07:01:03;;;;;;;26.60;18.42;;;;;;;20.29;45.83;101536.19;5043844;28;20412;-87
2021/06/18 07:03:29;;;;;;;25.35;18.10;;;;;;;20.13;46.53;101539.06;5024475;28;20036;-87
2021/06/18 07:05:54;;;;;;;21.52;16.95;;;;;;;19.66;47.88;101538.72;5025103;28;20040;-88
2021/06/18 07:08:21;;;;;;;23.42;18.20;;;;;;;19.55;48.29;101541.28;5034223;28;20034;-86
2021/06/18 07:10:48;;;;;;;27.60;17.90;;;;;;;19.43;48.49;101547.34;5037986;28;20467;-87
2021/06/18 07:13:14;;;;;;;25.35;17.98;;;;;;;19.98;47.01;101546.28;5034767;28;20045;-85
2021/06/18 07:15:39;;;;;;;23.83;17.95;;;;;;;20.18;46.56;101530.75;5038339;28;20034;-87
2021/06/18 07:18:05;;;;;;;24.85;16.42;;;;;;;20.68;45.30;101527.13;5037149;28;20025;-86
2021/06/18 07:20:31;;;;;;;24.73;16.52;;;;;;;20.51;45.43;101531.03;5072192;28;20028;-86
2021/06/18 07:22:57;;;;;;;20.25;15.55;;;;;;;20.19;46.44;101535.09;5032975;28;20041;-86
2021/06/18 07:25:22;;;;;;;18.05;13.90;;;;;;;19.87;47.50;101527.59;5053814;28;20014;-86
2021/06/18 07:27:48;;;;;;;20.23;15.45;;;;;;;19.85;47.58;101521.53;5049706;28;20049;-88
2021/06/18 07:30:14;;;;;;;15.48;13.25;;;;;;;19.63;46.80;101517.72;5037368;28;20376;-86
2021/06/18 07:32:40;;;;;;;16.75;13.55;;;;;;;19.62;47.02;101521.31;5032398;28;20025;-86
2021/06/18 07:35:06;;;;;;;18.05;14.45;;;;;;;19.43;47.97;101534.09;5055619;28;20037;-87
2021/06/18 07:37:31;;;;;;;16.13;12.57;;;;;;;19.64;47.79;101535.34;5054399;28;20027;-87
2021/06/18 07:39:57;;;;;;;18.80;12.38;;;;;;;19.97;46.70;101541.94;5039154;28;20037;-87
2021/06/18 07:42:23;;;;;;;15.80;12.48;;;;;;;19.53;47.40;101532.53;5037949;28;20045;-87
2021/06/18 07:44:49;;;;;;;17.20;13.98;;;;;;;19.21;47.67;101527.59;5054487;28;20183;-87
2021/06/18 07:47:15;;;;;;;16.73;12.82;;;;;;;19.47;47.82;101511.72;5048311;28;20101;-86
2021/06/18 07:49:40;;;;;;;16.60;12.55;;;;;;;19.68;47.72;101498.81;5029648;28;20022;-87
2021/06/18 07:52:06;;;;;;;15.10;12.80;;;;;;;19.32;48.03;101497.72;5042865;28;20030;-86
2021/06/18 07:54:32;;;;;;;17.75;12.60;;;;;;;19.94;46.85;101506.78;5022773;28;20072;-88
2021/06/18 07:56:58;;;;;;;15.32;11.05;;;;;;;19.53;47.81;101519.28;5027825;28;20330;-86
2021/06/18 07:59:25;;;;;;;11.75;9.88;;;;;;;19.73;47.34;101523.25;5027103;28;20048;-88
2021/06/18 08:01:51;;;;;;;13.18;11.43;;;;;;;19.88;47.29;101522.19;5041994;28;20033;-88
2021/06/18 08:04:17;;;;;;;13.93;11.40;;;;;;;19.75;47.14;101525.78;5023292;28;20096;-86
2021/06/18 08:06:42;;;;;;;11.07;9.02;;;;;;;19.98;46.43;101538.31;5027218;28;20025;-85
2021/06/18 08:09:08;;;;;;;13.88;12.07;;;;;;;19.65;47.69;101536.19;5042684;28;20044;-88
2021/06/18 08:11:34;;;;;;;16.08;12.02;;;;;;;20.09;46.74;101535.75;5043398;28;20382;-89
2021/06/18 08:13:59;;;;;;;15.70;11.98;;;;;;;19.79;47.36;101524.63;5030023;28;20064;-87
2021/06/18 08:16:25;;;;;;;15.57;9.13;;;;;;;19.76;47.71;101519.53;5049070;28;20029;-88
2021/06/18 08:18:50;;;;;;;13.57;10.50;;;;;;;19.25;48.65;101491.13;5022937;28;20235;-88
2021/06/18 08:21:16;;;;;;;14.25;10.02;;;;;;;19.42;47.93;101496.16;5039577;28;20044;-87
2021/06/18 08:23:42;;;;;;;13.95;10.23;;;;;;;19.20;48.59;101494.09;5024405;28;20037;-87
2021/06/18 08:26:08;;;;;;;12.20;10.45;;;;;;;19.65;47.75;101497.25;5031948;28;20048;-87
2021/06/18 08:28:33;;;;;;;10.77;9.45;;;;;;;19.81;47.48;101501.50;5046945;28;20124;-89
2021/06/18 08:31:03;;;;;;;13.20;9.23;;;;;;;19.53;47.68;101498.06;5024357;28;20036;-87
2021/06/18 08:33:30;;;;;;;13.18;9.27;;;;;;;20.17;46.71;101486.59;5022923;28;20033;-87
2021/06/18 08:35:56;;;;;;;13.93;9.38;;;;;;;20.18;46.57;101486.50;5036484;28;20059;-86
2021/06/18 08:38:21;;;;;;;13.20;9.52;;;;;;;20.91;45.27;101490.97;5045784;28;20112;-88
2021/06/18 08:40:47;;;;;;;11.60;9.02;;;;;;;22.17;41.45;101491.94;5040325;28;20494;-87
2021/06/18 08:43:12;;;;;;;10.80;8.20;;;;;;;22.38;41.68;101493.84;5036210;28;20466;-89
2021/06/18 08:45:38;;;;;;;12.80;9.85;;;;;;;21.86;42.21;101482.00;5036760;28;20040;-88
2021/06/18 08:48:04;;;;;;;12.65;8.93;;;;;;;21.18;43.77;101465.06;5037574;28;20069;-86
2021/06/18 08:50:30;;;;;;;11.57;8.45;;;;;;;22.00;42.84;101456.94;5040104;28;20029;-88
2021/06/18 08:52:58;;;;;;;12.85;8.85;;;;;;;21.97;42.02;101466.88;5038708;28;20067;-87
2021/06/18 08:55:29;;;;;;;9.00;7.80;;;;;;;22.68;41.31;101463.03;5059030;28;20025;-88
2021/06/18 08:58:02;;;;;;;10.65;8.85;;;;;;;22.77;41.04;101449.81;5043090;28;20025;-88
2021/06/18 09:00:29;;;;;;;10.63;7.70;;;;;;;24.28;38.03;101444.00;5057011;28;20167;-87
2021/06/18 09:02:55;;;;;;;11.90;8.95;;;;;;;23.34;38.43;101461.06;5024697;28;20084;-87
2021/06/18 09:05:22;;;;;;;9.77;8.18;;;;;;;23.06;39.72;101469.66;5026266;28;20033;-87
2021/06/18 09:07:54;;;;;;;9.02;6.70;;;;;;;23.11;39.80;101475.44;5037403;28;20057;-88
2021/06/18 09:10:43;;;;;;;8.18;7.32;;;;;;;24.63;37.65;101475.56;5051917;28;20064;-88
2021/06/18 09:13:20;;;;;;;7.93;6.93;;;;;;;24.64;36.21;101469.25;5025164;28;20057;-87
2021/06/18 09:15:57;;;;;;;7.28;6.50;;;;;;;24.69;36.39;101466.16;5036111;28;20157;-88
2021/06/18 09:18:24;;;;;;;6.60;6.00;;;;;;;24.69;36.19;101468.84;5037929;28;20041;-87
2021/06/18 09:21:14;;;;;;;10.32;5.65;;;;;;;23.60;38.09;101473.94;5035703;28;20029;-87
2021/06/18 09:23:43;;;;;;;6.55;5.95;;;;;;;23.17;39.15;101481.09;5060602;28;20036;-89
2021/06/18 09:26:30;;;;;;;6.82;6.13;;;;;;;23.05;39.46;101486.63;5068421;28;20045;-86
2021/06/18 09:29:02;;;;;;;6.65;4.65;;;;;;;23.34;38.39;101485.06;5045205;28;20037;-87
2021/06/18 09:31:31;;;;;;;7.38;5.47;;;;;;;23.20;38.98;101480.00;5041192;28;20140;-89
2021/06/18 09:33:57;;;;;;;6.35;5.20;;;;;;;24.63;36.13;101467.56;5050177;28;20031;-86
2021/06/18 09:36:22;;;;;;;6.70;5.00;;;;;;;24.64;36.44;101467.44;5046954;28;20116;-88
2021/06/18 09:38:53;;;;;;;5.13;4.72;;;;;;;24.42;36.66;101463.19;5041003;28;20651;-87
2021/06/18 09:41:38;;;;;;;9.50;4.83;;;;;;;23.81;37.88;101448.06;5044443;28;20061;-88
2021/06/18 09:44:18;;;;;;;6.65;4.65;;;;;;;24.21;37.68;101447.25;5017823;28;20060;-85
2021/06/18 09:46:51;;;;;;;5.53;4.75;;;;;;;24.49;36.93;101452.78;5033490;28;20046;-88
2021/06/18 09:49:29;;;;;;;5.47;4.45;;;;;;;24.76;36.11;101449.41;5028549;28;20043;-86
2021/06/18 09:51:57;;;;;;;4.47;3.58;;;;;;;24.68;35.90;101457.28;5025449;28;20127;-88
2021/06/18 09:54:31;;;;;;;3.75;3.40;;;;;;;23.90;38.03;101448.25;5031909;28;20029;-87
2021/06/18 09:57:08;;;;;;;3.95;3.55;;;;;;;24.38;36.38;101460.91;5031240;28;20038;-86
2021/06/18 09:59:59;;;;;;;4.03;3.35;;;;;;;24.82;35.61;101472.09;5031620;28;20029;-88
2021/06/18 10:02:49;;;;;;;3.78;3.30;;;;;;;24.84;35.90;101494.16;5054006;28;20034;-86
2021/06/18 10:05:20;;;;;;;4.57;2.97;;;;;;;23.97;37.08;101492.16;5044663;28;20171;-86
2021/06/18 10:07:49;;;;;;;6.95;5.03;;;;;;;22.91;39.03;101485.97;5037108;28;20120;-88
2021/06/18 10:10:19;;;;;;;4.13;3.72;;;;;;;22.62;40.00;101471.50;5038799;28;20037;-88
2021/06/18 10:12:45;;;;;;;4.78;3.55;;;;;;;23.04;39.42;101468.94;5049918;28;20124;-87
2021/06/18 10:15:15;;;;;;;4.75;4.05;;;;;;;23.03;39.27;101469.91;5039987;28;20129;-87
2021/06/18 10:17:43;;;;;;;4.28;3.88;;;;;;;23.00;38.90;101477.19;5043030;28;20548;-87
2021/06/18 10:20:16;;;;;;;6.45;5.55;;;;;;;23.66;37.60;101470.75;5025139;28;20044;-86
2021/06/18 10:22:54;;;;;;;3.95;3.65;;;;;;;22.85;39.87;101477.63;5024565;28;20483;-87
2021/06/18 10:25:33;;;;;;;5.57;4.43;;;;;;;22.80;39.80;101475.34;5040548;28;20037;-88
2021/06/18 10:28:09;;;;;;;5.32;4.03;;;;;;;22.83;39.55;101476.91;5026563;28;20037;-87
2021/06/18 10:30:44;;;;;;;5.07;3.63;;;;;;;22.84;39.61;101468.78;5027516;28;20079;-86
2021/06/18 10:33:25;;;;;;;6.43;3.50;;;;;;;23.24;38.66;101459.28;5039717;28;20026;-87
2021/06/18 10:36:07;;;;;;;4.25;3.67;;;;;;;23.28;38.74;101472.25;5044093;28;20484;-88
2021/06/18 10:38:32;;;;;;;4.93;3.17;;;;;;;23.77;37.87;101470.66;5043625;28;20578;-86
2021/06/18 10:41:01;;;;;;;4.85;3.92;;;;;;;23.65;38.49;101469.06;5049514;28;20034;-85
2021/06/18 10:43:39;;;;;;;4.18;3.42;;;;;;;24.08;36.50;101464.47;5048874;28;20100;-85
2021/06/18 10:46:07;;;;;;;4.38;3.53;;;;;;;23.14;39.08;101460.06;5044105;28;20120;-89
2021/06/18 10:48:44;;;;;;;3.50;3.20;;;;;;;23.44;38.29;101462.94;5025548;28;20022;-87
2021/06/18 10:51:38;;;;;;;3.35;2.83;;;;;;;23.47;38.96;101457.31;5015865;28;20042;-86
2021/06/18 10:54:17;;;;;;;4.57;3.05;;;;;;;23.99;38.64;101447.44;5029342;28;20041;-87
2021/06/18 10:56:49;;;;;;;3.63;3.33;;;;;;;23.76;37.99;101447.63;5035138;28;20022;-88
2021/06/18 10:59:32;;;;;;;3.55;2.97;;;;;;;24.54;36.93;101436.34;5015275;28;20072;-88
2021/06/18 11:02:00;;;;;;;5.70;3.95;;;;;;;24.76;36.96;101443.22;5034660;28;20029;-87
2021/06/18 11:04:36;;;;;;;4.80;3.13;;;;;;;24.42;36.91;101452.50;5025657;28;20021;-87
2021/06/18 11:07:26;;;;;;;5.75;3.17;;;;;;;24.67;37.11;101452.94;5022844;28;20037;-87
2021/06/18 11:09:54;;;;;;;3.70;3.35;;;;;;;25.19;36.63;101449.97;5028850;28;20033;-87
2021/06/18 11:12:26;;;;;;;5.32;3.55;;;;;;;24.70;37.01;101436.59;5036895;28;20041;-87
2021/06/18 11:14:57;;;;;;;4.05;3.65;;;;;;;24.91;36.79;101433.78;5039743;28;20024;-87
2021/06/18 11:17:49;;;;;;;5.32;4.13;;;;;;;25.19;35.92;101428.56;5057447;28;20029;-88
2021/06/18 11:20:17;;;;;;;4.20;3.80;;;;;;;25.14;35.72;101428.16;5041248;28;20037;-88
2021/06/18 11:22:48;;;;;;;9.32;4.13;;;;;;;24.77;35.96;101426.19;5023371;28;20120;-87
2021/06/18 11:25:45;;;;;;;7.22;5.07;;;;;;;25.04;37.15;101428.19;5040314;28;20490;-89